createdAt,value
2017-04-21T00:00:09.096Z,16.52
2017-04-21T00:01:08.911Z,17.03
2017-04-21T00:02:09.468Z,15.73
2017-04-21T00:03:09.301Z,17.13
2017-04-21T00:04:10.498Z,16.88
2017-04-21T00:05:11.281Z,19.10
2017-04-21T00:06:11.890Z,18.87
2017-04-21T00:07:11.621Z,21.87
2017-04-21T00:08:12.333Z,19.70
2017-04-21T00:09:13.100Z,16.85
2017-04-21T00:10:13.056Z,17.28
2017-04-21T00:11:13.188Z,15.42
2017-04-21T00:12:13.381Z,17.87
2017-04-21T00:13:13.700Z,20.98
2017-04-21T00:14:14.553Z,18.92
2017-04-21T00:15:14.579Z,19.58
2017-04-21T00:16:14.689Z,18.93
2017-04-21T00:17:14.436Z,22.20
2017-04-21T00:18:14.148Z,19.27
2017-04-21T00:19:14.076Z,19.30
2017-04-21T00:20:13.834Z,17.30
2017-04-21T00:21:14.532Z,20.50
2017-04-21T00:22:14.321Z,19.77
2017-04-21T00:23:14.313Z,20.05
2017-04-21T00:24:14.186Z,21.78
2017-04-21T00:25:15.107Z,20.75
2017-04-21T00:26:15.064Z,17.57
2017-04-21T00:27:15.428Z,19.82
2017-04-21T00:28:15.313Z,18.58
2017-04-21T00:29:15.071Z,21.45
2017-04-21T00:30:14.894Z,21.18
2017-04-21T00:31:15.503Z,19.50
2017-04-21T00:32:15.316Z,21.22
2017-04-21T00:33:15.122Z,19.07
2017-04-21T00:34:14.928Z,19.28
2017-04-21T00:35:14.855Z,22.02
2017-04-21T00:36:15.620Z,18.35
2017-04-21T00:37:15.381Z,21.98
2017-04-21T00:38:15.493Z,21.35
2017-04-21T00:39:15.308Z,18.37
2017-04-21T00:40:15.825Z,20.12
2017-04-21T00:41:15.730Z,17.83
2017-04-21T00:42:15.787Z,18.05
2017-04-21T00:43:17.278Z,20.17
2017-04-21T00:44:17.800Z,20.82
2017-04-21T00:45:17.612Z,18.50
2017-04-21T00:46:17.368Z,19.18
2017-04-21T00:47:17.588Z,19.72
2017-04-21T00:48:17.520Z,17.08
2017-04-21T00:49:18.066Z,21.47
2017-04-21T00:50:18.047Z,18.93
2017-04-21T00:51:17.862Z,19.23
2017-04-21T00:52:18.453Z,17.42
2017-04-21T00:53:18.338Z,16.33
2017-04-21T00:54:18.052Z,16.13
2017-04-21T00:55:17.864Z,18.97
2017-04-21T00:56:17.733Z,18.97
2017-04-21T00:57:17.502Z,18.95
2017-04-21T00:58:17.353Z,16.37
2017-04-21T00:59:17.304Z,14.67
2017-04-21T01:00:17.979Z,16.10
2017-04-21T01:01:17.761Z,16.83
2017-04-21T01:02:17.541Z,17.82
2017-04-21T01:03:17.492Z,16.37
2017-04-21T01:04:17.383Z,15.93
2017-04-21T01:05:17.211Z,21.67
2017-04-21T01:06:17.066Z,17.62
2017-04-21T01:07:17.067Z,18.83
2017-04-21T01:08:16.856Z,19.10
2017-04-21T01:09:17.535Z,20.20
2017-04-21T01:10:17.750Z,17.47
2017-04-21T01:11:17.672Z,14.60
2017-04-21T01:12:17.923Z,17.17
2017-04-21T01:13:17.732Z,18.67
2017-04-21T01:14:17.671Z,20.43
2017-04-21T01:15:18.017Z,15.73
2017-04-21T01:16:17.746Z,16.97
2017-04-21T01:17:17.765Z,15.75
2017-04-21T01:18:17.542Z,16.53
2017-04-21T01:19:17.330Z,17.53
2017-04-21T01:20:17.896Z,16.92
2017-04-21T01:21:17.588Z,17.42
2017-04-21T01:22:18.299Z,17.43
2017-04-21T01:23:18.891Z,15.75
2017-04-21T01:24:18.584Z,17.23
2017-04-21T01:25:18.885Z,17.52
2017-04-21T01:26:18.626Z,20.45
2017-04-21T01:27:18.423Z,17.33
2017-04-21T01:28:19.005Z,19.38
2017-04-21T01:29:18.969Z,17.65
2017-04-21T01:30:18.785Z,18.38
2017-04-21T01:31:18.433Z,16.02
2017-04-21T01:32:18.210Z,16.05
2017-04-21T01:33:18.070Z,16.63
2017-04-21T01:34:17.868Z,19.97
2017-04-21T01:35:17.770Z,19.52
2017-04-21T01:36:16.775Z,16.10
2017-04-21T01:37:16.657Z,18.77
2017-04-21T01:38:16.868Z,15.90
2017-04-21T01:39:17.346Z,15.22
2017-04-21T01:40:18.028Z,15.33
2017-04-21T01:41:18.009Z,17.03
2017-04-21T01:42:17.764Z,16.52
2017-04-21T01:43:18.293Z,15.20
2017-04-21T01:44:18.389Z,15.55
2017-04-21T01:45:18.361Z,22.75
2017-04-21T01:46:18.937Z,20.60
2017-04-21T01:47:18.894Z,16.95
2017-04-21T01:48:18.727Z,16.88
2017-04-21T01:49:18.566Z,17.03
2017-04-21T01:50:19.225Z,16.63
2017-04-21T01:51:19.170Z,15.77
2017-04-21T01:52:18.946Z,17.65
2017-04-21T01:53:19.536Z,19.33
2017-04-21T01:54:19.357Z,17.42
2017-04-21T01:55:19.118Z,16.05
2017-04-21T01:56:20.149Z,17.15
2017-04-21T01:57:19.889Z,17.80
2017-04-21T01:58:19.697Z,16.15
2017-04-21T01:59:19.577Z,17.20
2017-04-21T02:00:19.457Z,18.48
2017-04-21T02:01:19.198Z,16.10
2017-04-21T02:02:19.220Z,18.60
2017-04-21T02:03:19.022Z,19.88
2017-04-21T02:04:18.960Z,16.68
2017-04-21T02:05:19.496Z,18.42
2017-04-21T02:06:19.319Z,16.17
2017-04-21T02:07:19.238Z,13.72
2017-04-21T02:08:19.079Z,14.63
2017-04-21T02:09:18.907Z,15.12
2017-04-21T02:10:18.757Z,18.25
2017-04-21T02:11:18.011Z,17.68
2017-04-21T02:12:17.166Z,23.10
2017-04-21T02:13:16.355Z,20.60
2017-04-21T02:14:15.579Z,17.57
2017-04-21T02:15:14.761Z,17.18
2017-04-21T02:16:13.903Z,17.53
2017-04-21T02:17:13.047Z,15.00
2017-04-21T02:18:12.272Z,18.23
2017-04-21T02:19:11.418Z,17.62
2017-04-21T02:20:10.620Z,18.10
2017-04-21T02:21:09.787Z,17.30
2017-04-21T02:22:08.927Z,16.10
2017-04-21T02:23:08.083Z,18.35
2017-04-21T02:24:07.973Z,17.62
2017-04-21T02:25:07.116Z,17.87
2017-04-21T02:26:06.340Z,18.37
2017-04-21T02:27:05.531Z,16.57
2017-04-21T02:28:04.659Z,19.33
2017-04-21T02:29:03.799Z,19.47
2017-04-21T02:30:03.189Z,18.68
2017-04-21T02:31:02.319Z,19.10
2017-04-21T02:32:01.464Z,17.88
2017-04-21T02:33:00.591Z,19.72
2017-04-21T02:33:59.799Z,18.98
2017-04-21T02:34:58.939Z,21.63
2017-04-21T02:35:58.124Z,18.42
2017-04-21T02:36:57.269Z,21.53
2017-04-21T02:37:56.395Z,20.42
2017-04-21T02:38:55.536Z,20.07
2017-04-21T02:39:54.691Z,20.25
2017-04-21T02:40:54.585Z,16.72
2017-04-21T02:41:53.759Z,18.05
2017-04-21T02:42:52.897Z,23.30
2017-04-21T02:43:52.028Z,23.25
2017-04-21T02:44:51.949Z,19.92
2017-04-21T02:45:51.092Z,22.58
2017-04-21T02:46:50.235Z,20.70
2017-04-21T02:47:49.685Z,20.80
2017-04-21T02:48:48.824Z,18.62
2017-04-21T02:49:47.987Z,20.10
2017-04-21T02:50:47.127Z,24.12
2017-04-21T02:51:46.279Z,23.02
2017-04-21T02:52:45.440Z,21.93
2017-04-21T02:53:44.611Z,17.35
2017-04-21T02:54:43.788Z,20.17
2017-04-21T02:55:42.936Z,24.20
2017-04-21T02:56:42.787Z,21.05
2017-04-21T02:57:41.929Z,21.68
2017-04-21T02:58:41.067Z,23.12
2017-04-21T02:59:40.987Z,23.05
2017-04-21T03:00:40.180Z,24.88
2017-04-21T03:01:39.335Z,23.42
2017-04-21T03:02:39.272Z,23.57
2017-04-21T03:03:38.411Z,21.75
2017-04-21T03:04:37.600Z,23.83
2017-04-21T03:05:36.727Z,20.93
2017-04-21T03:06:35.808Z,20.20
2017-04-21T03:07:34.940Z,20.87
2017-04-21T03:08:34.076Z,20.05
2017-04-21T03:09:33.168Z,18.90
2017-04-21T03:10:32.252Z,25.38
2017-04-21T03:11:31.339Z,22.18
2017-04-21T03:12:30.439Z,21.92
2017-04-21T03:13:29.527Z,25.73
2017-04-21T03:14:29.384Z,23.98
2017-04-21T03:15:28.475Z,20.18
2017-04-21T03:16:27.568Z,22.48
2017-04-21T03:17:26.679Z,23.55
2017-04-21T03:18:25.768Z,21.67
2017-04-21T03:19:24.848Z,21.53
2017-04-21T03:20:23.968Z,20.60
2017-04-21T03:21:23.067Z,24.00
2017-04-21T03:22:22.156Z,25.18
2017-04-21T03:23:21.255Z,22.08
2017-04-21T03:24:20.359Z,24.28
2017-04-21T03:25:19.727Z,23.73
2017-04-21T03:26:18.843Z,22.52
2017-04-21T03:27:17.950Z,24.87
2017-04-21T03:28:17.792Z,24.35
2017-04-21T03:29:16.885Z,24.90
2017-04-21T03:30:15.987Z,23.78
2017-04-21T03:31:15.131Z,22.48
2017-04-21T03:32:14.227Z,25.03
2017-04-21T03:33:13.330Z,24.23
2017-04-21T03:34:12.428Z,24.00
2017-04-21T03:35:11.528Z,27.22
2017-04-21T03:36:10.628Z,24.77
2017-04-21T03:37:09.761Z,21.30
2017-04-21T03:38:08.847Z,18.33
2017-04-21T03:39:07.929Z,20.80
2017-04-21T03:40:07.015Z,27.83
2017-04-21T03:41:06.101Z,21.95
2017-04-21T03:42:05.191Z,24.82
2017-04-21T03:43:04.325Z,26.18
2017-04-21T03:44:03.415Z,22.98
2017-04-21T03:45:02.500Z,24.87
2017-04-21T03:46:01.587Z,23.30
2017-04-21T03:47:00.676Z,20.43
2017-04-21T03:48:00.095Z,19.32
2017-04-21T03:48:59.333Z,23.95
2017-04-21T03:49:58.421Z,26.27
2017-04-21T03:50:57.511Z,23.45
2017-04-21T03:51:56.635Z,23.48
2017-04-21T03:52:55.724Z,22.20
2017-04-21T03:53:54.811Z,24.00
2017-04-21T03:54:53.936Z,22.65
2017-04-21T03:55:53.019Z,25.10
2017-04-21T03:56:52.132Z,22.22
2017-04-21T03:57:51.224Z,24.22
2017-04-21T03:58:50.309Z,24.83
2017-04-21T03:59:49.395Z,23.37
2017-04-21T04:00:48.560Z,23.08
2017-04-21T04:01:47.652Z,24.05
2017-04-21T04:02:46.753Z,23.52
2017-04-21T04:03:45.864Z,25.47
2017-04-21T04:04:44.951Z,28.80
2017-04-21T04:05:44.168Z,21.02
2017-04-21T04:06:43.336Z,21.58
2017-04-21T04:07:42.472Z,22.83
2017-04-21T04:08:41.608Z,22.38
2017-04-21T04:09:40.753Z,26.30
2017-04-21T04:10:39.915Z,25.77
2017-04-21T04:11:39.099Z,25.92
2017-04-21T04:12:38.244Z,23.92
2017-04-21T04:13:37.378Z,24.53
2017-04-21T04:14:36.519Z,24.63
2017-04-21T04:15:35.664Z,25.98
2017-04-21T04:16:34.839Z,23.17
2017-04-21T04:17:34.024Z,27.12
2017-04-21T04:18:33.202Z,25.02
2017-04-21T04:19:32.371Z,24.27
2017-04-21T04:20:31.755Z,22.28
2017-04-21T04:21:30.900Z,25.40
2017-04-21T04:22:30.043Z,23.30
2017-04-21T04:23:29.272Z,19.95
2017-04-21T04:24:28.411Z,26.10
2017-04-21T04:25:27.572Z,22.33
2017-04-21T04:26:27.461Z,22.83
2017-04-21T04:27:26.603Z,21.37
2017-04-21T04:28:25.748Z,28.50
2017-04-21T04:29:24.951Z,24.82
2017-04-21T04:30:24.109Z,20.32
2017-04-21T04:31:23.256Z,19.58
2017-04-21T04:32:22.394Z,27.43
2017-04-21T04:33:21.526Z,23.33
2017-04-21T04:34:20.664Z,22.12
2017-04-21T04:35:20.583Z,21.13
2017-04-21T04:36:20.468Z,23.58
2017-04-21T04:37:19.647Z,23.00
2017-04-21T04:38:18.791Z,26.72
2017-04-21T04:39:17.936Z,24.82
2017-04-21T04:40:17.075Z,22.22
2017-04-21T04:41:16.277Z,21.75
2017-04-21T04:42:15.455Z,26.28
2017-04-21T04:43:14.625Z,25.68
2017-04-21T04:44:13.768Z,23.17
2017-04-21T04:45:12.910Z,23.00
2017-04-21T04:46:12.108Z,23.13
2017-04-21T04:47:11.294Z,21.10
2017-04-21T04:48:10.436Z,23.77
2017-04-21T04:49:09.580Z,24.02
2017-04-21T04:50:08.743Z,27.93
2017-04-21T04:51:07.895Z,26.32
2017-04-21T04:52:07.781Z,21.93
2017-04-21T04:53:06.966Z,21.78
2017-04-21T04:54:06.103Z,22.85
2017-04-21T04:55:05.248Z,24.05
2017-04-21T04:56:04.400Z,24.50
2017-04-21T04:57:03.591Z,26.08
2017-04-21T04:58:02.729Z,26.63
2017-04-21T04:59:02.633Z,26.78
2017-04-21T05:00:02.521Z,24.17
2017-04-21T05:01:01.660Z,22.73
2017-04-21T05:02:00.809Z,21.30
2017-04-21T05:03:00.691Z,24.63
2017-04-21T05:04:00.123Z,28.88
2017-04-21T05:04:59.452Z,23.22
2017-04-21T05:05:58.627Z,23.98
2017-04-21T05:06:57.987Z,26.70
2017-04-21T05:07:57.374Z,25.98
2017-04-21T05:08:56.524Z,25.72
2017-04-21T05:09:55.705Z,23.92
2017-04-21T05:10:54.991Z,27.97
2017-04-21T05:11:54.133Z,26.40
2017-04-21T05:12:53.271Z,26.60
2017-04-21T05:13:52.495Z,23.48
2017-04-21T05:14:51.591Z,28.15
2017-04-21T05:15:50.765Z,23.90
2017-04-21T05:16:50.632Z,28.82
2017-04-21T05:17:49.774Z,27.80
2017-04-21T05:18:48.872Z,24.55
2017-04-21T05:19:47.963Z,28.67
2017-04-21T05:20:47.047Z,27.45
2017-04-21T05:21:46.167Z,23.25
2017-04-21T05:22:45.295Z,28.23
2017-04-21T05:23:44.383Z,24.57
2017-04-21T05:24:43.500Z,26.82
2017-04-21T05:25:42.595Z,26.75
2017-04-21T05:26:41.691Z,23.38
2017-04-21T05:27:40.794Z,25.48
2017-04-21T05:28:39.932Z,25.17
2017-04-21T05:29:39.030Z,30.17
2017-04-21T05:30:39.720Z,30.38
2017-04-21T05:31:38.832Z,26.05
2017-04-21T05:32:37.980Z,23.90
2017-04-21T05:33:37.836Z,24.50
2017-04-21T05:34:36.960Z,28.87
2017-04-21T05:35:36.047Z,22.65
2017-04-21T05:36:35.875Z,30.20
2017-04-21T05:37:34.968Z,28.42
2017-04-21T05:38:34.052Z,29.10
2017-04-21T05:39:33.171Z,29.97
2017-04-21T05:40:32.301Z,24.00
2017-04-21T05:41:32.141Z,23.02
2017-04-21T05:42:31.257Z,31.25
2017-04-21T05:43:30.349Z,27.87
2017-04-21T05:44:29.471Z,28.75
2017-04-21T05:45:28.567Z,29.47
2017-04-21T05:46:27.704Z,32.13
2017-04-21T05:47:26.808Z,30.18
2017-04-21T05:48:26.644Z,28.62
2017-04-21T05:49:25.739Z,27.93
2017-04-21T05:50:24.831Z,32.33
2017-04-21T05:51:23.920Z,26.58
2017-04-21T05:52:23.043Z,28.32
2017-04-21T05:53:22.139Z,29.12
2017-04-21T05:54:22.008Z,28.87
2017-04-21T05:55:21.104Z,29.97
2017-04-21T05:56:20.195Z,30.02
2017-04-21T05:57:19.293Z,28.80
2017-04-21T05:58:19.120Z,32.58
2017-04-21T05:59:18.239Z,30.43
2017-04-21T06:00:17.343Z,31.27
2017-04-21T06:01:16.468Z,26.38
2017-04-21T06:02:15.566Z,29.33
2017-04-21T06:03:14.664Z,30.00
2017-04-21T06:04:13.788Z,28.30
2017-04-21T06:05:12.889Z,33.03
2017-04-21T06:06:12.751Z,31.77
2017-04-21T06:07:11.891Z,29.93
2017-04-21T06:08:12.252Z,29.13
2017-04-21T06:09:11.349Z,31.70
2017-04-21T06:10:10.436Z,29.48
2017-04-21T06:11:09.527Z,29.02
2017-04-21T06:12:08.619Z,29.33
2017-04-21T06:13:07.756Z,28.27
2017-04-21T06:14:06.933Z,30.53
2017-04-21T06:15:06.087Z,27.40
2017-04-21T06:16:05.219Z,30.15
2017-04-21T06:17:04.360Z,30.58
2017-04-21T06:18:03.539Z,26.02
2017-04-21T06:19:02.721Z,27.07
2017-04-21T06:20:01.868Z,30.12
2017-04-21T06:21:01.012Z,28.70
2017-04-21T06:22:00.152Z,30.85
2017-04-21T06:22:59.294Z,27.47
2017-04-21T06:23:58.432Z,31.48
2017-04-21T06:24:57.664Z,35.05
2017-04-21T06:25:56.796Z,30.13
2017-04-21T06:26:55.946Z,27.65
2017-04-21T06:27:55.836Z,33.43
2017-04-21T06:28:54.975Z,33.70
2017-04-21T06:29:54.112Z,32.70
2017-04-21T06:30:53.303Z,26.92
2017-04-21T06:31:53.187Z,26.35
2017-04-21T06:32:52.328Z,29.77
2017-04-21T06:33:51.503Z,27.50
2017-04-21T06:34:50.668Z,31.02
2017-04-21T06:35:49.835Z,27.93
2017-04-21T06:36:49.004Z,29.25
2017-04-21T06:37:48.143Z,31.92
2017-04-21T06:38:48.023Z,27.02
2017-04-21T06:39:47.168Z,30.37
2017-04-21T06:40:46.317Z,29.58
2017-04-21T06:41:45.451Z,28.72
2017-04-21T06:42:44.652Z,33.90
2017-04-21T06:43:43.790Z,31.63
2017-04-21T06:44:42.942Z,26.60
2017-04-21T06:45:42.080Z,26.95
2017-04-21T06:46:41.252Z,27.12
2017-04-21T06:47:40.444Z,30.65
2017-04-21T06:48:40.198Z,31.55
2017-04-21T06:49:39.747Z,28.70
2017-04-21T06:50:38.972Z,26.63
2017-04-21T06:51:38.140Z,28.67
2017-04-21T06:52:37.302Z,33.40
2017-04-21T06:53:37.469Z,30.55
2017-04-21T06:54:36.795Z,30.98
2017-04-21T06:55:36.459Z,30.08
2017-04-21T06:56:35.599Z,28.83
2017-04-21T06:57:34.735Z,31.03
2017-04-21T06:58:33.881Z,31.78
2017-04-21T06:59:33.027Z,32.97
2017-04-21T07:00:32.206Z,29.90
2017-04-21T07:01:31.339Z,30.87
2017-04-21T07:02:35.029Z,28.17
2017-04-21T07:03:34.179Z,29.40
2017-04-21T07:04:34.065Z,34.48
2017-04-21T07:05:33.224Z,32.32
2017-04-21T07:06:32.376Z,30.83
2017-04-21T07:07:31.545Z,29.58
2017-04-21T07:08:30.759Z,33.07
2017-04-21T07:09:29.898Z,26.70
2017-04-21T07:10:29.043Z,31.25
2017-04-21T07:11:28.183Z,27.85
2017-04-21T07:12:27.347Z,30.20
2017-04-21T07:13:26.484Z,34.52
2017-04-21T07:14:26.356Z,31.13
2017-04-21T07:15:25.444Z,28.98
2017-04-21T07:16:24.548Z,29.18
2017-04-21T07:17:23.680Z,29.65
2017-04-21T07:18:22.763Z,31.78
2017-04-21T07:19:21.851Z,33.25
2017-04-21T07:20:20.983Z,29.00
2017-04-21T07:21:20.488Z,32.48
2017-04-21T07:22:19.579Z,26.42
2017-04-21T07:23:19.653Z,29.60
2017-04-21T07:24:18.745Z,29.60
2017-04-21T07:25:17.855Z,30.13
2017-04-21T07:26:17.262Z,29.67
2017-04-21T07:27:16.347Z,31.08
2017-04-21T07:28:15.459Z,30.83
2017-04-21T07:29:14.780Z,32.93
2017-04-21T07:30:13.869Z,30.73
2017-04-21T07:31:13.120Z,30.63
2017-04-21T07:32:12.208Z,30.63
2017-04-21T07:33:11.306Z,28.67
2017-04-21T07:34:10.403Z,29.27
2017-04-21T07:35:09.705Z,32.80
2017-04-21T07:36:08.808Z,30.03
2017-04-21T07:37:07.978Z,30.60
2017-04-21T07:38:07.096Z,31.25
2017-04-21T07:39:06.960Z,31.57
2017-04-21T07:40:06.068Z,27.63
2017-04-21T07:41:05.245Z,31.97
2017-04-21T07:42:04.333Z,32.50
2017-04-21T07:43:03.427Z,31.58
2017-04-21T07:44:02.851Z,29.97
2017-04-21T07:45:01.939Z,29.37
2017-04-21T07:46:01.088Z,28.72
2017-04-21T07:47:00.364Z,30.77
2017-04-21T07:47:59.539Z,29.60
2017-04-21T07:48:58.676Z,31.90
2017-04-21T07:49:58.596Z,28.62
2017-04-21T07:50:57.748Z,31.18
2017-04-21T07:51:56.892Z,28.72
2017-04-21T07:52:56.059Z,29.48
2017-04-21T07:53:55.200Z,32.07
2017-04-21T07:54:54.386Z,30.10
2017-04-21T07:55:53.536Z,29.93
2017-04-21T07:56:52.688Z,30.82
2017-04-21T07:57:51.840Z,28.55
2017-04-21T07:58:50.999Z,27.12
2017-04-21T07:59:54.583Z,31.05
2017-04-21T08:00:49.403Z,30.05
2017-04-21T08:01:48.568Z,32.28
2017-04-21T08:02:47.718Z,32.43
2017-04-21T08:03:46.885Z,30.45
2017-04-21T08:04:46.367Z,30.02
2017-04-21T08:05:45.524Z,30.02
2017-04-21T08:06:44.684Z,32.27
2017-04-21T08:07:43.876Z,31.28
2017-04-21T08:08:43.053Z,31.13
2017-04-21T08:09:42.408Z,29.22
2017-04-21T08:10:41.609Z,30.90
2017-04-21T08:11:40.756Z,32.57
2017-04-21T08:12:39.910Z,30.95
2017-04-21T08:13:39.817Z,29.17
2017-04-21T08:14:39.025Z,29.78
2017-04-21T08:15:38.192Z,28.63
2017-04-21T08:16:37.364Z,31.97
2017-04-21T08:17:37.304Z,30.08
2017-04-21T08:18:36.488Z,31.10
2017-04-21T08:19:35.716Z,31.88
2017-04-21T08:20:35.008Z,31.30
2017-04-21T08:21:34.164Z,31.00
2017-04-21T08:22:33.317Z,30.48
2017-04-21T08:23:32.473Z,31.65
2017-04-21T08:24:31.659Z,31.27
2017-04-21T08:25:30.843Z,31.48
2017-04-21T08:26:30.025Z,32.93
2017-04-21T08:27:29.175Z,30.30
2017-04-21T08:28:28.320Z,31.67
2017-04-21T08:29:27.471Z,30.98
2017-04-21T08:30:26.694Z,28.68
2017-04-21T08:31:25.835Z,29.55
2017-04-21T08:32:25.016Z,30.85
2017-04-21T08:33:24.427Z,31.10
2017-04-21T08:34:23.567Z,30.30
2017-04-21T08:35:23.451Z,26.97
2017-04-21T08:36:22.627Z,28.10
2017-04-21T08:37:22.019Z,29.30
2017-04-21T08:38:23.397Z,29.98
2017-04-21T08:39:23.288Z,30.45
2017-04-21T08:40:22.467Z,29.43
2017-04-21T08:41:21.623Z,30.28
2017-04-21T08:42:20.779Z,30.80
2017-04-21T08:43:19.944Z,30.32
2017-04-21T08:44:19.887Z,29.52
2017-04-21T08:45:19.040Z,30.02
2017-04-21T08:46:18.927Z,32.52
2017-04-21T08:47:18.075Z,30.00
2017-04-21T08:48:17.220Z,31.33
2017-04-21T08:49:16.376Z,29.72
2017-04-21T08:50:15.756Z,31.88
2017-04-21T08:51:14.931Z,30.22
2017-04-21T08:52:14.087Z,30.33
2017-04-21T08:53:13.243Z,29.68
2017-04-21T08:54:12.383Z,29.05
2017-04-21T08:55:11.562Z,29.42
2017-04-21T08:56:10.739Z,27.45
2017-04-21T08:57:09.888Z,29.38
2017-04-21T08:58:09.789Z,30.73
2017-04-21T08:59:08.935Z,30.62
2017-04-21T09:00:08.196Z,29.63
2017-04-21T09:01:07.356Z,27.82
2017-04-21T09:02:06.543Z,29.20
2017-04-21T09:03:05.712Z,30.18
2017-04-21T09:04:04.879Z,29.65
2017-04-21T09:05:04.052Z,28.50
2017-04-21T09:06:03.251Z,28.00
2017-04-21T09:07:02.419Z,30.05
2017-04-21T09:08:01.579Z,30.08
2017-04-21T09:09:01.476Z,29.62
2017-04-21T09:10:00.627Z,29.67
2017-04-21T09:11:00.521Z,29.33
2017-04-21T09:11:59.796Z,27.82
2017-04-21T09:12:58.943Z,26.67
2017-04-21T09:13:58.087Z,30.90
2017-04-21T09:14:57.244Z,29.85
2017-04-21T09:15:56.407Z,28.87
2017-04-21T09:16:55.547Z,29.52
2017-04-21T09:17:54.925Z,28.37
2017-04-21T09:18:54.118Z,30.13
2017-04-21T09:19:53.268Z,29.82
2017-04-21T09:20:53.165Z,28.32
2017-04-21T09:21:53.711Z,28.40
2017-04-21T09:22:52.860Z,28.73
2017-04-21T09:23:52.056Z,29.30
2017-04-21T09:24:51.203Z,29.22
2017-04-21T09:25:50.350Z,27.53
2017-04-21T09:26:50.275Z,30.88
2017-04-21T09:27:49.444Z,30.23
2017-04-21T09:28:49.409Z,28.47
2017-04-21T09:29:48.584Z,29.67
2017-04-21T09:31:00.667Z,29.67
2017-04-21T09:31:46.992Z,28.68
2017-04-21T09:32:46.138Z,28.80
2017-04-21T09:33:45.345Z,28.98
2017-04-21T09:34:44.496Z,29.57
2017-04-21T09:35:44.129Z,29.87
2017-04-21T09:36:44.055Z,29.77
2017-04-21T09:37:43.312Z,28.67
2017-04-21T09:38:43.235Z,27.45
2017-04-21T09:39:42.628Z,30.27
2017-04-21T09:40:41.768Z,29.53
2017-04-21T09:41:40.952Z,29.93
2017-04-21T09:42:40.347Z,29.72
2017-04-21T09:43:39.596Z,30.47
2017-04-21T09:44:38.747Z,27.90
2017-04-21T09:45:37.908Z,29.20
2017-04-21T09:46:37.065Z,31.25
2017-04-21T09:47:36.249Z,30.27
2017-04-21T09:48:35.414Z,31.52
2017-04-21T09:49:34.600Z,28.75
2017-04-21T09:50:33.792Z,28.72
2017-04-21T09:51:32.935Z,29.73
2017-04-21T09:52:32.073Z,28.08
2017-04-21T09:53:31.280Z,29.70
2017-04-21T09:56:05.054Z,29.63
2017-04-21T09:57:02.409Z,28.78
2017-04-21T09:57:23.110Z,30.27
2017-04-21T09:57:55.055Z,29.50
2017-04-21T09:59:53.505Z,31.27
2017-04-21T10:00:25.852Z,27.40
2017-04-21T10:04:21.654Z,28.78
2017-04-21T10:04:32.275Z,29.40
2017-04-21T10:04:42.203Z,29.38
2017-04-21T10:06:25.389Z,32.18
2017-04-21T10:07:56.538Z,28.85
2017-04-21T10:08:21.276Z,30.30
2017-04-21T10:08:21.618Z,28.18
2017-04-21T10:08:22.020Z,28.05
2017-04-21T10:08:22.162Z,30.08
2017-04-21T10:09:19.156Z,31.33
2017-04-21T10:10:18.256Z,31.90
2017-04-21T10:11:17.756Z,30.97
2017-04-21T10:12:16.857Z,32.92
2017-04-21T10:13:15.976Z,33.20
2017-04-21T10:14:15.821Z,30.72
2017-04-21T10:15:14.920Z,31.82
2017-04-21T10:16:14.051Z,30.42
2017-04-21T10:17:14.112Z,30.78
2017-04-21T10:18:13.248Z,30.87
2017-04-21T10:19:12.343Z,32.97
2017-04-21T10:20:11.444Z,31.97
2017-04-21T10:21:10.551Z,32.00
2017-04-21T10:22:09.644Z,32.82
2017-04-21T10:23:08.868Z,33.08
2017-04-21T10:24:07.972Z,30.08
2017-04-21T10:25:07.063Z,31.43
2017-04-21T10:26:06.152Z,32.10
2017-04-21T10:27:05.248Z,33.63
2017-04-21T10:28:04.348Z,33.12
2017-04-21T10:29:03.467Z,31.95
2017-04-21T10:30:02.569Z,32.18
2017-04-21T10:31:02.432Z,33.33
2017-04-21T10:32:01.539Z,31.10
2017-04-21T10:33:00.636Z,31.12
2017-04-21T10:33:59.736Z,30.88
2017-04-21T10:34:58.895Z,31.70
2017-04-21T10:35:57.987Z,32.43
2017-04-21T10:36:57.081Z,35.40
2017-04-21T10:37:56.195Z,34.23
2017-04-21T10:38:55.292Z,33.37
2017-04-21T10:39:54.403Z,34.77
2017-04-21T10:40:53.903Z,31.73
2017-04-21T10:41:53.001Z,32.93
2017-04-21T10:42:52.105Z,33.30
2017-04-21T10:55:09.703Z,34.30
2017-04-21T10:56:09.538Z,33.70
2017-04-21T10:57:08.664Z,33.53
2017-04-21T10:58:07.771Z,33.78
2017-04-21T10:59:06.899Z,35.30
2017-04-21T11:00:05.991Z,34.30
2017-04-21T11:01:05.095Z,34.38
2017-04-21T11:02:04.183Z,34.47
2017-04-21T11:03:03.351Z,34.92
2017-04-21T11:04:02.496Z,31.42
2017-04-21T11:05:02.396Z,33.38
2017-04-21T11:06:02.284Z,33.15
2017-04-21T11:07:01.434Z,34.80
2017-04-21T11:08:00.705Z,35.20
2017-04-21T11:08:59.917Z,33.88
2017-04-21T11:09:59.068Z,32.45
2017-04-21T11:10:58.955Z,34.63
2017-04-21T11:11:58.120Z,33.70
2017-04-21T11:12:57.265Z,33.43
2017-04-21T11:13:56.415Z,34.77
2017-04-21T11:14:56.304Z,34.33
2017-04-21T11:15:55.447Z,32.70
2017-04-21T11:16:54.631Z,35.03
2017-04-21T11:17:53.780Z,32.45
2017-04-21T11:18:52.964Z,33.98
2017-04-21T11:19:52.104Z,34.10
2017-04-21T11:20:51.271Z,34.10
2017-04-21T11:21:50.415Z,32.97
2017-04-21T11:22:49.596Z,34.30
2017-04-21T11:23:48.772Z,33.65
2017-04-21T11:24:48.887Z,34.60
2017-04-21T11:25:48.035Z,35.62
2017-04-21T11:26:47.187Z,35.00
2017-04-21T11:27:46.338Z,36.02
2017-04-21T11:28:45.507Z,33.67
2017-04-21T11:29:44.655Z,33.42
2017-04-21T11:30:44.559Z,32.05
2017-04-21T11:31:44.453Z,34.73
2017-04-21T11:32:43.636Z,34.75
2017-04-21T11:33:42.774Z,33.68
2017-04-21T11:34:41.923Z,36.28
2017-04-21T11:35:41.132Z,34.80
2017-04-21T11:36:40.291Z,33.08
2017-04-21T11:37:39.439Z,35.23
2017-04-21T11:38:38.626Z,34.50
2017-04-21T11:39:37.775Z,33.78
2017-04-21T11:40:37.671Z,33.72
2017-04-21T11:41:37.571Z,35.02
2017-04-21T11:42:36.711Z,33.98
2017-04-21T11:43:35.920Z,33.42
2017-04-21T11:44:35.372Z,35.22
2017-04-21T11:45:34.522Z,32.88
2017-04-21T11:46:34.632Z,35.58
2017-04-21T11:47:34.523Z,33.38
2017-04-21T11:48:33.667Z,33.23
2017-04-21T11:49:32.819Z,34.97
2017-04-21T11:50:32.032Z,33.52
2017-04-21T11:51:31.207Z,36.10
2017-04-21T11:52:31.092Z,32.72
2017-04-21T11:53:30.977Z,32.88
2017-04-21T11:54:30.152Z,35.28
2017-04-21T11:55:29.319Z,32.92
2017-04-21T11:56:28.460Z,33.18
2017-04-21T11:57:28.357Z,33.30
2017-04-21T11:58:27.499Z,32.38
2017-04-21T11:59:26.646Z,35.05
2017-04-21T12:00:26.570Z,33.33
2017-04-21T12:01:25.758Z,35.60
2017-04-21T12:02:24.907Z,34.38
2017-04-21T12:03:24.756Z,32.62
2017-04-21T12:04:23.905Z,32.63
2017-04-21T12:05:23.815Z,34.32
2017-04-21T12:06:23.705Z,33.25
2017-04-21T12:07:22.871Z,34.90
2017-04-21T12:08:22.035Z,36.62
2017-04-21T12:09:21.195Z,29.43
2017-04-21T12:10:20.351Z,30.77
2017-04-21T12:11:20.102Z,30.85
2017-04-21T12:12:19.888Z,33.25
2017-04-21T12:13:19.580Z,34.93
2017-04-21T12:14:18.809Z,33.00
2017-04-21T12:15:17.984Z,31.80
2017-04-21T12:16:17.127Z,32.58
2017-04-21T12:17:16.272Z,32.78
2017-04-21T12:18:15.457Z,34.83
2017-04-21T12:19:14.615Z,34.37
2017-04-21T12:20:13.789Z,30.95
2017-04-21T12:21:13.812Z,32.25
2017-04-21T12:22:12.976Z,32.70
2017-04-21T12:23:13.526Z,34.65
2017-04-21T12:24:12.676Z,34.65
2017-04-21T12:25:12.591Z,31.40
2017-04-21T12:26:12.475Z,35.13
2017-04-21T12:27:11.634Z,33.70
2017-04-21T12:28:10.815Z,33.88
2017-04-21T12:29:09.960Z,33.57
2017-04-21T12:30:09.934Z,36.28
2017-04-21T12:31:09.113Z,34.57
2017-04-21T12:32:08.290Z,34.87
2017-04-21T12:33:07.465Z,33.55
2017-04-21T12:34:06.636Z,34.35
2017-04-21T12:35:05.817Z,32.85
2017-04-21T12:36:04.991Z,32.80
2017-04-21T12:37:04.921Z,30.77
2017-04-21T12:38:04.087Z,33.32
2017-04-21T12:39:04.336Z,33.10
2017-04-21T12:40:03.533Z,32.50
2017-04-21T12:41:02.825Z,28.73
2017-04-21T12:42:02.001Z,35.23
2017-04-21T12:43:01.169Z,34.87
2017-04-21T12:44:00.725Z,31.70
2017-04-21T12:44:59.928Z,32.97
2017-04-21T12:46:00.010Z,34.68
2017-04-21T12:46:59.188Z,32.67
2017-04-21T12:47:58.349Z,32.83
2017-04-21T12:48:57.512Z,34.13
2017-04-21T12:49:57.473Z,32.48
2017-04-21T12:50:56.692Z,32.02
2017-04-21T12:51:56.596Z,34.48
2017-04-21T12:52:56.520Z,32.37
2017-04-21T12:53:55.679Z,33.53
2017-04-21T12:54:54.849Z,33.62
2017-04-21T12:55:54.021Z,34.93